sensor_id;sensor_type;location;lat;lon;timestamp;P1;durP1;ratioP1;P2;durP2;ratioP2
4766;SDS011;2397;53.576;9.746;2023-10-13T00:01:50;8.53;;;4.20;;
4766;SDS011;2397;53.576;9.746;2023-10-13T00:04:19;12.50;;;4.87;;
4766;SDS011;2397;53.576;9.746;2023-10-13T00:06:51;13.83;;;5.10;;
4766;SDS011;2397;53.576;9.746;2023-10-13T00:09:19;9.97;;;5.30;;
4766;SDS011;2397;53.576;9.746;2023-10-13T00:11:51;13.47;;;5.40;;
4766;SDS011;2397;53.576;9.746;2023-10-13T00:14:19;16.00;;;5.60;;
4766;SDS011;2397;53.576;9.746;2023-10-13T00:16:47;12.90;;;5.10;;
4766;SDS011;2397;53.576;9.746;2023-10-13T00:19:34;10.67;;;5.83;;
4766;SDS011;2397;53.576;9.746;2023-10-13T00:22:10;12.50;;;6.30;;
4766;SDS011;2397;53.576;9.746;2023-10-13T00:24:38;21.00;;;6.70;;
4766;SDS011;2397;53.576;9.746;2023-10-13T00:27:09;8.33;;;6.13;;
4766;SDS011;2397;53.576;9.746;2023-10-13T00:29:59;19.83;;;6.67;;
4766;SDS011;2397;53.576;9.746;2023-10-13T00:33:00;12.10;;;6.33;;
4766;SDS011;2397;53.576;9.746;2023-10-13T00:35:27;10.67;;;5.77;;
4766;SDS011;2397;53.576;9.746;2023-10-13T00:38:03;14.30;;;6.33;;
4766;SDS011;2397;53.576;9.746;2023-10-13T00:40:31;18.47;;;6.20;;
4766;SDS011;2397;53.576;9.746;2023-10-13T00:42:59;11.77;;;6.63;;
4766;SDS011;2397;53.576;9.746;2023-10-13T00:45:48;10.10;;;6.60;;
4766;SDS011;2397;53.576;9.746;2023-10-13T00:48:21;19.50;;;6.60;;
4766;SDS011;2397;53.576;9.746;2023-10-13T00:50:56;16.83;;;6.47;;
4766;SDS011;2397;53.576;9.746;2023-10-13T00:53:25;20.70;;;7.03;;
4766;SDS011;2397;53.576;9.746;2023-10-13T00:55:52;15.70;;;6.97;;
4766;SDS011;2397;53.576;9.746;2023-10-13T00:58:22;12.40;;;6.43;;
4766;SDS011;2397;53.576;9.746;2023-10-13T01:00:51;13.30;;;6.97;;
4766;SDS011;2397;53.576;9.746;2023-10-13T01:03:44;18.17;;;7.47;;
4766;SDS011;2397;53.576;9.746;2023-10-13T01:06:15;15.60;;;6.67;;
4766;SDS011;2397;53.576;9.746;2023-10-13T01:08:46;18.23;;;7.70;;
4766;SDS011;2397;53.576;9.746;2023-10-13T01:11:19;20.83;;;8.10;;
4766;SDS011;2397;53.576;9.746;2023-10-13T01:13:50;21.40;;;8.30;;
4766;SDS011;2397;53.576;9.746;2023-10-13T01:16:20;19.30;;;8.60;;
4766;SDS011;2397;53.576;9.746;2023-10-13T01:18:53;15.10;;;7.67;;
4766;SDS011;2397;53.576;9.746;2023-10-13T01:21:26;26.00;;;9.13;;
4766;SDS011;2397;53.576;9.746;2023-10-13T01:23:56;15.57;;;7.97;;
4766;SDS011;2397;53.576;9.746;2023-10-13T01:26:22;12.93;;;7.40;;
4766;SDS011;2397;53.576;9.746;2023-10-13T01:28:59;16.10;;;7.90;;
4766;SDS011;2397;53.576;9.746;2023-10-13T01:31:25;18.50;;;7.97;;
4766;SDS011;2397;53.576;9.746;2023-10-13T01:34:03;24.17;;;8.73;;
4766;SDS011;2397;53.576;9.746;2023-10-13T01:36:30;19.20;;;9.30;;
4766;SDS011;2397;53.576;9.746;2023-10-13T01:39:03;19.13;;;8.50;;
4766;SDS011;2397;53.576;9.746;2023-10-13T01:41:29;18.10;;;9.70;;
4766;SDS011;2397;53.576;9.746;2023-10-13T01:43:57;22.77;;;10.13;;
4766;SDS011;2397;53.576;9.746;2023-10-13T01:46:23;24.50;;;9.77;;
4766;SDS011;2397;53.576;9.746;2023-10-13T01:48:50;23.00;;;10.10;;
4766;SDS011;2397;53.576;9.746;2023-10-13T01:51:20;23.60;;;10.20;;
4766;SDS011;2397;53.576;9.746;2023-10-13T01:53:49;26.30;;;10.93;;
4766;SDS011;2397;53.576;9.746;2023-10-13T01:56:23;26.80;;;11.43;;
4766;SDS011;2397;53.576;9.746;2023-10-13T01:58:51;25.83;;;12.30;;
4766;SDS011;2397;53.576;9.746;2023-10-13T02:01:18;25.00;;;11.50;;
4766;SDS011;2397;53.576;9.746;2023-10-13T02:03:56;27.43;;;12.57;;
4766;SDS011;2397;53.576;9.746;2023-10-13T02:06:30;23.90;;;12.30;;
4766;SDS011;2397;53.576;9.746;2023-10-13T02:09:03;31.30;;;13.23;;
4766;SDS011;2397;53.576;9.746;2023-10-13T02:11:43;25.73;;;13.20;;
4766;SDS011;2397;53.576;9.746;2023-10-13T02:14:14;32.50;;;15.13;;
4766;SDS011;2397;53.576;9.746;2023-10-13T02:16:44;26.00;;;14.33;;
4766;SDS011;2397;53.576;9.746;2023-10-13T02:19:14;32.87;;;14.10;;
4766;SDS011;2397;53.576;9.746;2023-10-13T02:21:42;35.43;;;16.60;;
4766;SDS011;2397;53.576;9.746;2023-10-13T02:24:11;39.80;;;15.83;;
4766;SDS011;2397;53.576;9.746;2023-10-13T02:26:44;33.73;;;16.30;;
4766;SDS011;2397;53.576;9.746;2023-10-13T02:29:11;36.73;;;16.23;;
4766;SDS011;2397;53.576;9.746;2023-10-13T02:31:44;43.40;;;16.70;;
4766;SDS011;2397;53.576;9.746;2023-10-13T02:34:21;32.93;;;16.57;;
4766;SDS011;2397;53.576;9.746;2023-10-13T02:36:51;30.37;;;15.57;;
4766;SDS011;2397;53.576;9.746;2023-10-13T02:39:19;31.53;;;16.00;;
4766;SDS011;2397;53.576;9.746;2023-10-13T02:41:56;40.97;;;18.53;;
4766;SDS011;2397;53.576;9.746;2023-10-13T02:44:22;42.97;;;17.87;;
4766;SDS011;2397;53.576;9.746;2023-10-13T02:46:57;40.07;;;16.90;;
4766;SDS011;2397;53.576;9.746;2023-10-13T02:49:25;35.03;;;17.33;;
4766;SDS011;2397;53.576;9.746;2023-10-13T02:52:00;30.03;;;16.33;;
4766;SDS011;2397;53.576;9.746;2023-10-13T02:54:32;32.20;;;16.57;;
4766;SDS011;2397;53.576;9.746;2023-10-13T02:57:03;37.10;;;18.17;;
4766;SDS011;2397;53.576;9.746;2023-10-13T02:59:32;44.80;;;19.20;;
4766;SDS011;2397;53.576;9.746;2023-10-13T03:02:13;38.00;;;17.40;;
4766;SDS011;2397;53.576;9.746;2023-10-13T03:04:45;38.20;;;16.83;;
4766;SDS011;2397;53.576;9.746;2023-10-13T03:07:15;40.20;;;19.10;;
4766;SDS011;2397;53.576;9.746;2023-10-13T03:09:49;35.33;;;17.63;;
4766;SDS011;2397;53.576;9.746;2023-10-13T03:12:18;43.73;;;19.00;;
4766;SDS011;2397;53.576;9.746;2023-10-13T03:14:45;37.70;;;18.50;;
4766;SDS011;2397;53.576;9.746;2023-10-13T03:17:15;37.70;;;17.20;;
4766;SDS011;2397;53.576;9.746;2023-10-13T03:19:45;31.70;;;17.90;;
4766;SDS011;2397;53.576;9.746;2023-10-13T03:22:21;38.70;;;18.73;;
4766;SDS011;2397;53.576;9.746;2023-10-13T03:24:57;34.23;;;17.20;;
4766;SDS011;2397;53.576;9.746;2023-10-13T03:27:32;44.17;;;21.13;;
4766;SDS011;2397;53.576;9.746;2023-10-13T03:30:17;38.80;;;18.13;;
4766;SDS011;2397;53.576;9.746;2023-10-13T03:32:44;38.87;;;19.00;;
4766;SDS011;2397;53.576;9.746;2023-10-13T03:35:21;37.10;;;17.43;;
4766;SDS011;2397;53.576;9.746;2023-10-13T03:37:51;31.90;;;16.13;;
4766;SDS011;2397;53.576;9.746;2023-10-13T03:40:18;31.13;;;16.07;;
4766;SDS011;2397;53.576;9.746;2023-10-13T03:42:58;29.40;;;15.67;;
4766;SDS011;2397;53.576;9.746;2023-10-13T03:45:41;36.20;;;16.07;;
4766;SDS011;2397;53.576;9.746;2023-10-13T03:48:10;26.90;;;15.50;;
4766;SDS011;2397;53.576;9.746;2023-10-13T03:50:47;27.17;;;15.33;;
4766;SDS011;2397;53.576;9.746;2023-10-13T03:53:24;24.13;;;12.27;;
4766;SDS011;2397;53.576;9.746;2023-10-13T03:55:52;22.10;;;12.53;;
4766;SDS011;2397;53.576;9.746;2023-10-13T03:58:37;24.73;;;13.57;;
4766;SDS011;2397;53.576;9.746;2023-10-13T04:01:05;26.30;;;12.77;;
4766;SDS011;2397;53.576;9.746;2023-10-13T04:03:32;21.70;;;12.67;;
4766;SDS011;2397;53.576;9.746;2023-10-13T04:06:05;24.90;;;12.60;;
4766;SDS011;2397;53.576;9.746;2023-10-13T04:08:32;26.60;;;14.37;;
4766;SDS011;2397;53.576;9.746;2023-10-13T04:11:14;25.13;;;14.03;;
4766;SDS011;2397;53.576;9.746;2023-10-13T04:13:59;29.87;;;14.57;;
4766;SDS011;2397;53.576;9.746;2023-10-13T04:16:44;26.90;;;14.60;;
4766;SDS011;2397;53.576;9.746;2023-10-13T04:19:21;26.90;;;15.20;;
4766;SDS011;2397;53.576;9.746;2023-10-13T04:21:51;26.43;;;14.50;;
4766;SDS011;2397;53.576;9.746;2023-10-13T04:24:25;30.10;;;15.60;;
4766;SDS011;2397;53.576;9.746;2023-10-13T04:27:25;29.00;;;15.47;;
4766;SDS011;2397;53.576;9.746;2023-10-13T04:30:20;26.53;;;15.23;;
4766;SDS011;2397;53.576;9.746;2023-10-13T04:33:04;34.00;;;17.67;;
4766;SDS011;2397;53.576;9.746;2023-10-13T04:38:59;38.60;;;19.50;;
4766;SDS011;2397;53.576;9.746;2023-10-13T04:41:27;44.03;;;19.83;;
4766;SDS011;2397;53.576;9.746;2023-10-13T04:44:11;43.73;;;20.83;;
4766;SDS011;2397;53.576;9.746;2023-10-13T04:46:58;50.13;;;22.23;;
4766;SDS011;2397;53.576;9.746;2023-10-13T04:49:29;53.33;;;24.07;;
4766;SDS011;2397;53.576;9.746;2023-10-13T04:52:12;50.93;;;24.20;;
4766;SDS011;2397;53.576;9.746;2023-10-13T04:54:53;51.07;;;24.37;;
4766;SDS011;2397;53.576;9.746;2023-10-13T04:57:23;48.83;;;24.33;;
4766;SDS011;2397;53.576;9.746;2023-10-13T05:00:09;65.23;;;29.60;;
4766;SDS011;2397;53.576;9.746;2023-10-13T05:02:46;68.07;;;29.53;;
4766;SDS011;2397;53.576;9.746;2023-10-13T05:05:32;71.97;;;31.30;;
4766;SDS011;2397;53.576;9.746;2023-10-13T05:08:13;61.83;;;29.73;;
4766;SDS011;2397;53.576;9.746;2023-10-13T05:11:02;74.13;;;31.33;;
4766;SDS011;2397;53.576;9.746;2023-10-13T05:13:49;73.67;;;32.17;;
4766;SDS011;2397;53.576;9.746;2023-10-13T05:16:34;79.53;;;32.47;;
4766;SDS011;2397;53.576;9.746;2023-10-13T05:19:19;69.70;;;31.43;;
4766;SDS011;2397;53.576;9.746;2023-10-13T05:22:04;86.17;;;32.97;;
4766;SDS011;2397;53.576;9.746;2023-10-13T05:24:49;62.53;;;32.10;;
4766;SDS011;2397;53.576;9.746;2023-10-13T05:27:34;73.30;;;32.90;;
4766;SDS011;2397;53.576;9.746;2023-10-13T05:30:19;70.90;;;31.80;;
4766;SDS011;2397;53.576;9.746;2023-10-13T05:33:04;68.30;;;31.07;;
4766;SDS011;2397;53.576;9.746;2023-10-13T05:35:50;69.90;;;33.13;;
4766;SDS011;2397;53.576;9.746;2023-10-13T05:38:35;69.73;;;31.73;;
4766;SDS011;2397;53.576;9.746;2023-10-13T05:41:20;68.93;;;30.87;;
4766;SDS011;2397;53.576;9.746;2023-10-13T05:44:07;64.03;;;29.27;;
4766;SDS011;2397;53.576;9.746;2023-10-13T05:46:52;51.77;;;28.93;;
4766;SDS011;2397;53.576;9.746;2023-10-13T05:49:37;60.77;;;29.90;;
4766;SDS011;2397;53.576;9.746;2023-10-13T05:52:16;59.40;;;29.13;;
4766;SDS011;2397;53.576;9.746;2023-10-13T05:55:06;60.83;;;29.03;;
4766;SDS011;2397;53.576;9.746;2023-10-13T05:57:52;60.40;;;28.47;;
4766;SDS011;2397;53.576;9.746;2023-10-13T06:00:40;61.77;;;31.00;;
4766;SDS011;2397;53.576;9.746;2023-10-13T06:03:26;50.90;;;29.47;;
4766;SDS011;2397;53.576;9.746;2023-10-13T06:06:11;67.73;;;30.53;;
4766;SDS011;2397;53.576;9.746;2023-10-13T06:08:57;57.90;;;30.07;;
4766;SDS011;2397;53.576;9.746;2023-10-13T06:11:42;55.73;;;27.47;;
4766;SDS011;2397;53.576;9.746;2023-10-13T06:14:27;50.50;;;28.90;;
4766;SDS011;2397;53.576;9.746;2023-10-13T06:17:12;48.10;;;28.97;;
4766;SDS011;2397;53.576;9.746;2023-10-13T06:19:57;54.70;;;29.00;;
4766;SDS011;2397;53.576;9.746;2023-10-13T06:22:43;48.87;;;28.47;;
4766;SDS011;2397;53.576;9.746;2023-10-13T06:25:32;61.00;;;28.67;;
4766;SDS011;2397;53.576;9.746;2023-10-13T06:28:18;50.43;;;29.13;;
4766;SDS011;2397;53.576;9.746;2023-10-13T06:31:04;54.77;;;28.33;;
4766;SDS011;2397;53.576;9.746;2023-10-13T06:33:34;51.00;;;27.87;;
4766;SDS011;2397;53.576;9.746;2023-10-13T06:36:02;56.80;;;29.73;;
4766;SDS011;2397;53.576;9.746;2023-10-13T06:38:29;56.70;;;29.83;;
4766;SDS011;2397;53.576;9.746;2023-10-13T06:41:03;48.10;;;28.00;;
4766;SDS011;2397;53.576;9.746;2023-10-13T06:43:34;55.93;;;29.00;;
4766;SDS011;2397;53.576;9.746;2023-10-13T06:46:09;51.33;;;28.13;;
4766;SDS011;2397;53.576;9.746;2023-10-13T06:48:44;50.27;;;30.60;;
4766;SDS011;2397;53.576;9.746;2023-10-13T06:51:10;56.50;;;32.07;;
4766;SDS011;2397;53.576;9.746;2023-10-13T06:53:51;50.83;;;31.23;;
4766;SDS011;2397;53.576;9.746;2023-10-13T06:56:22;58.40;;;31.63;;
4766;SDS011;2397;53.576;9.746;2023-10-13T06:58:54;48.83;;;31.30;;
4766;SDS011;2397;53.576;9.746;2023-10-13T07:01:30;50.50;;;30.43;;
4766;SDS011;2397;53.576;9.746;2023-10-13T07:04:08;55.13;;;30.17;;
4766;SDS011;2397;53.576;9.746;2023-10-13T07:06:43;61.30;;;31.43;;
4766;SDS011;2397;53.576;9.746;2023-10-13T07:09:16;60.10;;;32.53;;
4766;SDS011;2397;53.576;9.746;2023-10-13T07:12:03;52.40;;;28.70;;
4766;SDS011;2397;53.576;9.746;2023-10-13T07:14:33;50.63;;;29.43;;
4766;SDS011;2397;53.576;9.746;2023-10-13T07:17:00;53.03;;;29.97;;
4766;SDS011;2397;53.576;9.746;2023-10-13T07:19:29;54.07;;;31.63;;
4766;SDS011;2397;53.576;9.746;2023-10-13T07:22:00;48.20;;;29.13;;
4766;SDS011;2397;53.576;9.746;2023-10-13T07:24:46;49.47;;;29.53;;
4766;SDS011;2397;53.576;9.746;2023-10-13T07:27:20;48.03;;;29.13;;
4766;SDS011;2397;53.576;9.746;2023-10-13T07:29:51;47.13;;;28.90;;
4766;SDS011;2397;53.576;9.746;2023-10-13T07:32:37;50.03;;;30.40;;
4766;SDS011;2397;53.576;9.746;2023-10-13T07:35:04;53.00;;;29.20;;
4766;SDS011;2397;53.576;9.746;2023-10-13T07:37:34;45.93;;;29.17;;
4766;SDS011;2397;53.576;9.746;2023-10-13T07:40:01;47.83;;;28.40;;
4766;SDS011;2397;53.576;9.746;2023-10-13T07:42:35;44.93;;;27.70;;
4766;SDS011;2397;53.576;9.746;2023-10-13T07:45:06;49.27;;;27.20;;
4766;SDS011;2397;53.576;9.746;2023-10-13T07:47:34;46.43;;;29.07;;
4766;SDS011;2397;53.576;9.746;2023-10-13T07:50:00;45.20;;;26.23;;
4766;SDS011;2397;53.576;9.746;2023-10-13T07:52:27;45.50;;;25.73;;
4766;SDS011;2397;53.576;9.746;2023-10-13T07:55:03;39.37;;;25.23;;
4766;SDS011;2397;53.576;9.746;2023-10-13T07:57:38;39.07;;;25.33;;
4766;SDS011;2397;53.576;9.746;2023-10-13T08:00:25;42.23;;;25.37;;
4766;SDS011;2397;53.576;9.746;2023-10-13T08:03:04;36.80;;;21.63;;
4766;SDS011;2397;53.576;9.746;2023-10-13T08:05:44;39.10;;;22.80;;
4766;SDS011;2397;53.576;9.746;2023-10-13T08:08:33;29.23;;;19.80;;
4766;SDS011;2397;53.576;9.746;2023-10-13T08:11:10;32.13;;;20.80;;
4766;SDS011;2397;53.576;9.746;2023-10-13T08:13:38;33.57;;;21.00;;
4766;SDS011;2397;53.576;9.746;2023-10-13T08:16:30;41.27;;;21.10;;
4766;SDS011;2397;53.576;9.746;2023-10-13T08:19:15;26.93;;;19.60;;
4766;SDS011;2397;53.576;9.746;2023-10-13T08:21:43;31.40;;;20.20;;
4766;SDS011;2397;53.576;9.746;2023-10-13T08:24:24;28.50;;;19.53;;
4766;SDS011;2397;53.576;9.746;2023-10-13T08:27:12;27.77;;;19.80;;
4766;SDS011;2397;53.576;9.746;2023-10-13T08:29:44;30.00;;;20.63;;
4766;SDS011;2397;53.576;9.746;2023-10-13T08:32:21;27.07;;;18.10;;
4766;SDS011;2397;53.576;9.746;2023-10-13T08:34:59;30.83;;;19.67;;
4766;SDS011;2397;53.576;9.746;2023-10-13T08:37:32;27.20;;;16.80;;
4766;SDS011;2397;53.576;9.746;2023-10-13T08:40:02;27.23;;;18.00;;
4766;SDS011;2397;53.576;9.746;2023-10-13T08:42:51;20.23;;;15.80;;
4766;SDS011;2397;53.576;9.746;2023-10-13T08:45:36;22.77;;;16.70;;
4766;SDS011;2397;53.576;9.746;2023-10-13T08:48:03;24.17;;;17.07;;
4766;SDS011;2397;53.576;9.746;2023-10-13T08:50:39;22.17;;;15.70;;
4766;SDS011;2397;53.576;9.746;2023-10-13T08:53:20;22.23;;;14.90;;
4766;SDS011;2397;53.576;9.746;2023-10-13T08:56:18;23.03;;;15.33;;
4766;SDS011;2397;53.576;9.746;2023-10-13T08:58:59;19.53;;;14.27;;
4766;SDS011;2397;53.576;9.746;2023-10-13T09:01:32;20.33;;;14.47;;
4766;SDS011;2397;53.576;9.746;2023-10-13T09:04:07;18.30;;;13.80;;
4766;SDS011;2397;53.576;9.746;2023-10-13T09:07:02;21.90;;;15.10;;
4766;SDS011;2397;53.576;9.746;2023-10-13T09:12:21;19.73;;;15.00;;
4766;SDS011;2397;53.576;9.746;2023-10-13T09:17:32;17.53;;;13.10;;
4766;SDS011;2397;53.576;9.746;2023-10-13T09:20:08;18.30;;;11.90;;
4766;SDS011;2397;53.576;9.746;2023-10-13T09:22:51;19.80;;;12.70;;
4766;SDS011;2397;53.576;9.746;2023-10-13T09:25:28;12.87;;;11.53;;
4766;SDS011;2397;53.576;9.746;2023-10-13T09:28:02;14.30;;;10.80;;
4766;SDS011;2397;53.576;9.746;2023-10-13T09:30:49;11.97;;;10.60;;
4766;SDS011;2397;53.576;9.746;2023-10-13T09:33:23;14.90;;;9.70;;
4766;SDS011;2397;53.576;9.746;2023-10-13T09:36:06;15.03;;;10.70;;
4766;SDS011;2397;53.576;9.746;2023-10-13T09:38:35;9.77;;;8.77;;
4766;SDS011;2397;53.576;9.746;2023-10-13T09:41:07;10.03;;;7.50;;
4766;SDS011;2397;53.576;9.746;2023-10-13T09:43:52;10.23;;;7.87;;
4766;SDS011;2397;53.576;9.746;2023-10-13T09:46:25;12.20;;;7.87;;
4766;SDS011;2397;53.576;9.746;2023-10-13T09:48:57;10.00;;;7.90;;
4766;SDS011;2397;53.576;9.746;2023-10-13T09:51:34;11.50;;;7.30;;
4766;SDS011;2397;53.576;9.746;2023-10-13T09:57:05;7.37;;;6.70;;
4766;SDS011;2397;53.576;9.746;2023-10-13T09:59:49;9.67;;;6.80;;
4766;SDS011;2397;53.576;9.746;2023-10-13T10:02:19;9.37;;;6.57;;
4766;SDS011;2397;53.576;9.746;2023-10-13T10:04:53;8.27;;;7.00;;
4766;SDS011;2397;53.576;9.746;2023-10-13T10:07:39;9.90;;;6.70;;
4766;SDS011;2397;53.576;9.746;2023-10-13T10:10:10;13.60;;;7.67;;
4766;SDS011;2397;53.576;9.746;2023-10-13T10:15:29;10.47;;;8.03;;
4766;SDS011;2397;53.576;9.746;2023-10-13T10:18:02;8.27;;;6.90;;
4766;SDS011;2397;53.576;9.746;2023-10-13T10:20:31;14.03;;;8.23;;
4766;SDS011;2397;53.576;9.746;2023-10-13T10:23:25;15.63;;;7.30;;
4766;SDS011;2397;53.576;9.746;2023-10-13T10:25:55;11.87;;;7.50;;
4766;SDS011;2397;53.576;9.746;2023-10-13T10:28:35;14.40;;;7.43;;
4766;SDS011;2397;53.576;9.746;2023-10-13T10:31:06;8.33;;;7.00;;
4766;SDS011;2397;53.576;9.746;2023-10-13T10:33:43;10.70;;;7.60;;
4766;SDS011;2397;53.576;9.746;2023-10-13T10:36:11;11.23;;;7.20;;
4766;SDS011;2397;53.576;9.746;2023-10-13T10:38:53;9.93;;;7.37;;
4766;SDS011;2397;53.576;9.746;2023-10-13T10:41:25;11.00;;;7.73;;
4766;SDS011;2397;53.576;9.746;2023-10-13T10:43:56;11.00;;;8.17;;
4766;SDS011;2397;53.576;9.746;2023-10-13T10:46:27;9.70;;;7.83;;
4766;SDS011;2397;53.576;9.746;2023-10-13T10:48:55;11.07;;;8.20;;
4766;SDS011;2397;53.576;9.746;2023-10-13T10:51:22;12.03;;;7.50;;
4766;SDS011;2397;53.576;9.746;2023-10-13T10:53:53;14.50;;;8.20;;
4766;SDS011;2397;53.576;9.746;2023-10-13T10:56:23;8.93;;;7.40;;
4766;SDS011;2397;53.576;9.746;2023-10-13T10:58:55;20.00;;;8.10;;
4766;SDS011;2397;53.576;9.746;2023-10-13T11:01:24;10.10;;;7.37;;
4766;SDS011;2397;53.576;9.746;2023-10-13T11:03:59;10.03;;;7.60;;
4766;SDS011;2397;53.576;9.746;2023-10-13T11:06:46;12.47;;;7.80;;
4766;SDS011;2397;53.576;9.746;2023-10-13T11:09:32;10.10;;;7.50;;
4766;SDS011;2397;53.576;9.746;2023-10-13T11:12:13;17.80;;;7.60;;
4766;SDS011;2397;53.576;9.746;2023-10-13T11:14:44;9.20;;;7.63;;
4766;SDS011;2397;53.576;9.746;2023-10-13T11:17:21;9.90;;;8.17;;
4766;SDS011;2397;53.576;9.746;2023-10-13T11:20:08;9.77;;;7.40;;
4766;SDS011;2397;53.576;9.746;2023-10-13T11:22:52;14.00;;;7.80;;
4766;SDS011;2397;53.576;9.746;2023-10-13T11:25:20;9.63;;;8.10;;
4766;SDS011;2397;53.576;9.746;2023-10-13T11:28:12;10.10;;;8.10;;
4766;SDS011;2397;53.576;9.746;2023-10-13T11:30:54;11.57;;;7.63;;
4766;SDS011;2397;53.576;9.746;2023-10-13T11:33:25;14.33;;;8.40;;
4766;SDS011;2397;53.576;9.746;2023-10-13T11:35:58;12.33;;;7.50;;
4766;SDS011;2397;53.576;9.746;2023-10-13T11:38:31;9.40;;;7.17;;
4766;SDS011;2397;53.576;9.746;2023-10-13T11:41:08;17.53;;;7.63;;
4766;SDS011;2397;53.576;9.746;2023-10-13T11:43:40;11.17;;;8.00;;
4766;SDS011;2397;53.576;9.746;2023-10-13T11:46:08;9.10;;;7.07;;
4766;SDS011;2397;53.576;9.746;2023-10-13T11:48:43;12.00;;;7.40;;
4766;SDS011;2397;53.576;9.746;2023-10-13T11:51:11;11.70;;;7.33;;
4766;SDS011;2397;53.576;9.746;2023-10-13T11:53:52;10.03;;;6.60;;
4766;SDS011;2397;53.576;9.746;2023-10-13T11:56:19;10.50;;;7.40;;
4766;SDS011;2397;53.576;9.746;2023-10-13T11:58:49;10.03;;;6.50;;
4766;SDS011;2397;53.576;9.746;2023-10-13T12:01:17;9.23;;;6.80;;
4766;SDS011;2397;53.576;9.746;2023-10-13T12:03:45;9.00;;;6.67;;
4766;SDS011;2397;53.576;9.746;2023-10-13T12:06:34;9.70;;;5.87;;
4766;SDS011;2397;53.576;9.746;2023-10-13T12:09:22;7.90;;;6.10;;
4766;SDS011;2397;53.576;9.746;2023-10-13T12:11:49;13.60;;;6.20;;
4766;SDS011;2397;53.576;9.746;2023-10-13T12:14:20;11.57;;;6.30;;
4766;SDS011;2397;53.576;9.746;2023-10-13T12:16:56;11.77;;;6.10;;
4766;SDS011;2397;53.576;9.746;2023-10-13T12:19:27;7.87;;;6.00;;
4766;SDS011;2397;53.576;9.746;2023-10-13T12:21:55;11.13;;;6.73;;
4766;SDS011;2397;53.576;9.746;2023-10-13T12:24:23;8.53;;;5.30;;
4766;SDS011;2397;53.576;9.746;2023-10-13T12:29:29;6.90;;;5.17;;
4766;SDS011;2397;53.576;9.746;2023-10-13T12:31:55;13.67;;;6.10;;
4766;SDS011;2397;53.576;9.746;2023-10-13T12:34:35;11.20;;;5.70;;
4766;SDS011;2397;53.576;9.746;2023-10-13T12:37:21;10.30;;;5.00;;
4766;SDS011;2397;53.576;9.746;2023-10-13T12:40:06;8.37;;;5.80;;
4766;SDS011;2397;53.576;9.746;2023-10-13T12:42:53;9.50;;;4.60;;
4766;SDS011;2397;53.576;9.746;2023-10-13T12:45:39;15.37;;;6.17;;
4766;SDS011;2397;53.576;9.746;2023-10-13T12:48:24;9.93;;;5.10;;
4766;SDS011;2397;53.576;9.746;2023-10-13T12:51:09;16.57;;;6.30;;
4766;SDS011;2397;53.576;9.746;2023-10-13T12:53:54;9.30;;;5.70;;
4766;SDS011;2397;53.576;9.746;2023-10-13T12:56:22;7.60;;;4.90;;
4766;SDS011;2397;53.576;9.746;2023-10-13T12:58:52;13.53;;;5.03;;
4766;SDS011;2397;53.576;9.746;2023-10-13T13:01:21;9.50;;;6.07;;
4766;SDS011;2397;53.576;9.746;2023-10-13T13:03:49;20.40;;;6.17;;
4766;SDS011;2397;53.576;9.746;2023-10-13T13:06:20;9.70;;;6.07;;
4766;SDS011;2397;53.576;9.746;2023-10-13T13:08:56;20.17;;;6.20;;
4766;SDS011;2397;53.576;9.746;2023-10-13T13:11:24;8.80;;;6.50;;
4766;SDS011;2397;53.576;9.746;2023-10-13T13:13:52;10.80;;;5.70;;
4766;SDS011;2397;53.576;9.746;2023-10-13T13:16:19;10.70;;;6.17;;
4766;SDS011;2397;53.576;9.746;2023-10-13T13:18:50;9.73;;;5.70;;
4766;SDS011;2397;53.576;9.746;2023-10-13T13:21:17;8.07;;;5.83;;
4766;SDS011;2397;53.576;9.746;2023-10-13T13:23:49;12.27;;;6.20;;
4766;SDS011;2397;53.576;9.746;2023-10-13T13:26:22;9.70;;;5.90;;
4766;SDS011;2397;53.576;9.746;2023-10-13T13:28:49;13.47;;;6.10;;
4766;SDS011;2397;53.576;9.746;2023-10-13T13:31:19;10.30;;;6.20;;
4766;SDS011;2397;53.576;9.746;2023-10-13T13:33:52;13.03;;;5.83;;
4766;SDS011;2397;53.576;9.746;2023-10-13T13:36:19;10.93;;;5.30;;
4766;SDS011;2397;53.576;9.746;2023-10-13T13:38:45;15.23;;;5.63;;
4766;SDS011;2397;53.576;9.746;2023-10-13T13:41:13;11.70;;;5.53;;
4766;SDS011;2397;53.576;9.746;2023-10-13T13:43:46;13.70;;;6.17;;
4766;SDS011;2397;53.576;9.746;2023-10-13T13:46:17;11.07;;;5.77;;
4766;SDS011;2397;53.576;9.746;2023-10-13T13:48:45;11.93;;;6.60;;
4766;SDS011;2397;53.576;9.746;2023-10-13T13:51:14;11.40;;;5.67;;
4766;SDS011;2397;53.576;9.746;2023-10-13T13:53:42;8.87;;;4.90;;
4766;SDS011;2397;53.576;9.746;2023-10-13T13:56:12;16.97;;;5.97;;
4766;SDS011;2397;53.576;9.746;2023-10-13T13:58:43;11.53;;;5.83;;
4766;SDS011;2397;53.576;9.746;2023-10-13T14:01:10;9.17;;;5.67;;
4766;SDS011;2397;53.576;9.746;2023-10-13T14:03:48;16.80;;;5.93;;
4766;SDS011;2397;53.576;9.746;2023-10-13T14:06:23;14.33;;;6.13;;
4766;SDS011;2397;53.576;9.746;2023-10-13T14:08:54;8.93;;;5.77;;
4766;SDS011;2397;53.576;9.746;2023-10-13T14:11:23;12.30;;;5.47;;
4766;SDS011;2397;53.576;9.746;2023-10-13T14:16:40;25.03;;;6.97;;
4766;SDS011;2397;53.576;9.746;2023-10-13T14:19:11;11.63;;;6.30;;
4766;SDS011;2397;53.576;9.746;2023-10-13T14:21:38;16.00;;;5.93;;
4766;SDS011;2397;53.576;9.746;2023-10-13T14:24:05;14.13;;;6.43;;
4766;SDS011;2397;53.576;9.746;2023-10-13T14:26:43;14.93;;;5.90;;
4766;SDS011;2397;53.576;9.746;2023-10-13T14:29:10;14.50;;;6.73;;
4766;SDS011;2397;53.576;9.746;2023-10-13T14:31:40;13.23;;;5.93;;
4766;SDS011;2397;53.576;9.746;2023-10-13T14:34:07;13.00;;;6.33;;
4766;SDS011;2397;53.576;9.746;2023-10-13T14:36:34;13.13;;;6.57;;
4766;SDS011;2397;53.576;9.746;2023-10-13T14:39:01;10.67;;;6.73;;
4766;SDS011;2397;53.576;9.746;2023-10-13T14:41:38;16.60;;;7.00;;
4766;SDS011;2397;53.576;9.746;2023-10-13T14:44:04;9.93;;;5.77;;
4766;SDS011;2397;53.576;9.746;2023-10-13T14:46:32;10.47;;;6.37;;
4766;SDS011;2397;53.576;9.746;2023-10-13T14:49:02;7.40;;;5.53;;
4766;SDS011;2397;53.576;9.746;2023-10-13T14:51:29;13.40;;;6.47;;
4766;SDS011;2397;53.576;9.746;2023-10-13T14:53:56;9.53;;;6.17;;
4766;SDS011;2397;53.576;9.746;2023-10-13T14:56:22;12.73;;;6.63;;
4766;SDS011;2397;53.576;9.746;2023-10-13T14:58:53;16.43;;;6.47;;
4766;SDS011;2397;53.576;9.746;2023-10-13T15:01:21;12.50;;;6.90;;
4766;SDS011;2397;53.576;9.746;2023-10-13T15:03:51;16.07;;;7.07;;
4766;SDS011;2397;53.576;9.746;2023-10-13T15:06:25;19.50;;;6.53;;
4766;SDS011;2397;53.576;9.746;2023-10-13T15:08:58;16.73;;;6.20;;
4766;SDS011;2397;53.576;9.746;2023-10-13T15:11:27;11.97;;;6.90;;
4766;SDS011;2397;53.576;9.746;2023-10-13T15:14:14;8.77;;;5.90;;
4766;SDS011;2397;53.576;9.746;2023-10-13T15:16:40;8.50;;;6.03;;
4766;SDS011;2397;53.576;9.746;2023-10-13T15:19:10;9.97;;;5.57;;
4766;SDS011;2397;53.576;9.746;2023-10-13T15:21:36;10.53;;;6.33;;
4766;SDS011;2397;53.576;9.746;2023-10-13T15:24:03;11.63;;;6.23;;
4766;SDS011;2397;53.576;9.746;2023-10-13T15:26:52;14.97;;;6.07;;
4766;SDS011;2397;53.576;9.746;2023-10-13T15:29:27;16.83;;;6.47;;
4766;SDS011;2397;53.576;9.746;2023-10-13T15:32:01;12.40;;;6.83;;
4766;SDS011;2397;53.576;9.746;2023-10-13T15:34:28;15.73;;;6.63;;
4766;SDS011;2397;53.576;9.746;2023-10-13T15:36:55;11.17;;;6.70;;
4766;SDS011;2397;53.576;9.746;2023-10-13T15:39:23;12.80;;;7.00;;
4766;SDS011;2397;53.576;9.746;2023-10-13T15:41:50;12.07;;;7.10;;
4766;SDS011;2397;53.576;9.746;2023-10-13T15:44:20;17.57;;;7.17;;
4766;SDS011;2397;53.576;9.746;2023-10-13T15:46:54;11.03;;;6.23;;
4766;SDS011;2397;53.576;9.746;2023-10-13T15:49:24;13.73;;;6.07;;
4766;SDS011;2397;53.576;9.746;2023-10-13T15:51:55;16.23;;;6.77;;
4766;SDS011;2397;53.576;9.746;2023-10-13T15:54:24;14.37;;;6.47;;
4766;SDS011;2397;53.576;9.746;2023-10-13T15:56:51;22.50;;;7.10;;
4766;SDS011;2397;53.576;9.746;2023-10-13T15:59:18;13.00;;;6.30;;
4766;SDS011;2397;53.576;9.746;2023-10-13T16:01:45;10.10;;;6.23;;